createdAt,value
2024-05-09T00:00:36.181Z,3.80
2024-05-09T00:03:07.904Z,3.72
2024-05-09T00:05:35.817Z,4.05
2024-05-09T00:08:02.930Z,4.03
2024-05-09T00:10:35.983Z,4.10
2024-05-09T00:13:06.077Z,4.65
2024-05-09T00:15:33.947Z,3.92
2024-05-09T00:18:01.410Z,3.78
2024-05-09T00:20:36.483Z,4.15
2024-05-09T00:23:11.625Z,3.75
2024-05-09T00:25:39.285Z,3.85
2024-05-09T00:28:06.279Z,3.85
2024-05-09T00:30:35.858Z,3.67
2024-05-09T00:33:05.909Z,3.83
2024-05-09T00:35:33.815Z,3.60
2024-05-09T00:38:00.847Z,3.80
2024-05-09T00:40:37.638Z,3.70
2024-05-09T00:43:07.284Z,4.10
2024-05-09T00:45:34.714Z,3.63
2024-05-09T00:48:02.983Z,3.70
2024-05-09T00:50:35.940Z,3.75
2024-05-09T00:53:05.502Z,3.88
2024-05-09T00:55:32.260Z,3.90
2024-05-09T00:57:58.925Z,4.30
2024-05-09T01:00:32.067Z,4.03
2024-05-09T01:03:05.817Z,4.20
2024-05-09T01:05:32.951Z,4.63
2024-05-09T01:07:59.807Z,3.55
2024-05-09T01:10:33.597Z,4.03
2024-05-09T01:13:06.391Z,3.53
2024-05-09T01:15:34.387Z,4.22
2024-05-09T01:18:05.076Z,4.10
2024-05-09T01:20:40.827Z,4.22
2024-05-09T01:23:11.181Z,3.83
2024-05-09T01:25:38.274Z,3.55
2024-05-09T01:28:05.671Z,3.55
2024-05-09T01:30:35.652Z,4.00
2024-05-09T01:33:06.603Z,4.03
2024-05-09T01:35:35.201Z,4.10
2024-05-09T01:38:02.006Z,4.10
2024-05-09T01:40:36.657Z,3.75
2024-05-09T01:43:06.353Z,3.90
2024-05-09T01:45:33.193Z,3.65
2024-05-09T01:48:00.263Z,3.63
2024-05-09T01:50:37.537Z,4.38
2024-05-09T01:53:08.973Z,4.05
2024-05-09T01:55:35.789Z,4.35
2024-05-09T01:58:02.493Z,4.00
2024-05-09T02:00:38.154Z,4.45
2024-05-09T02:03:15.368Z,4.88
2024-05-09T02:05:45.429Z,4.63
2024-05-09T02:08:18.107Z,4.50
2024-05-09T02:10:45.600Z,5.43
2024-05-09T02:13:13.172Z,4.50
2024-05-09T02:15:39.998Z,5.05
2024-05-09T02:18:08.078Z,4.72
2024-05-09T02:20:36.928Z,4.88
2024-05-09T02:23:06.162Z,4.43
2024-05-09T02:25:33.397Z,5.32
2024-05-09T02:28:00.165Z,4.88
2024-05-09T02:30:37.721Z,4.75
2024-05-09T02:33:09.186Z,4.63
2024-05-09T02:35:37.036Z,5.25
2024-05-09T02:38:03.925Z,4.93
2024-05-09T02:40:36.758Z,4.78
2024-05-09T02:43:10.553Z,4.93
2024-05-09T02:45:38.658Z,4.75
2024-05-09T02:48:06.315Z,5.10
2024-05-09T02:50:38.315Z,4.40
2024-05-09T02:53:07.507Z,4.30
2024-05-09T02:55:34.365Z,4.55
2024-05-09T02:58:01.110Z,4.68
2024-05-09T03:00:36.666Z,5.00
2024-05-09T03:03:08.540Z,4.30
2024-05-09T03:05:36.480Z,4.30
2024-05-09T03:08:03.794Z,4.82
2024-05-09T03:10:35.940Z,4.35
2024-05-09T03:13:15.423Z,4.43
2024-05-09T03:15:43.935Z,4.72
2024-05-09T03:18:11.131Z,5.15
2024-05-09T03:20:39.033Z,5.38
2024-05-09T03:23:08.067Z,4.47
2024-05-09T03:25:36.030Z,4.28
2024-05-09T03:28:02.923Z,5.20
2024-05-09T03:30:38.665Z,4.95
2024-05-09T03:33:18.352Z,4.30
2024-05-09T03:35:47.158Z,4.63
2024-05-09T03:38:14.182Z,5.35
2024-05-09T03:40:48.620Z,4.75
2024-05-09T03:43:16.432Z,4.90
2024-05-09T03:45:43.607Z,4.47
2024-05-09T03:48:10.672Z,5.22
2024-05-09T03:50:37.932Z,5.45
2024-05-09T03:53:05.206Z,5.30
2024-05-09T03:55:32.137Z,5.30
2024-05-09T03:57:59.177Z,4.93
2024-05-09T04:00:34.496Z,4.90
2024-05-09T04:03:11.014Z,5.03
2024-05-09T04:05:40.993Z,5.60
2024-05-09T04:08:09.120Z,4.80
2024-05-09T04:10:36.014Z,5.28
2024-05-09T04:13:03.594Z,5.10
2024-05-09T04:15:30.771Z,5.10
2024-05-09T04:17:57.869Z,5.18
2024-05-09T04:20:34.285Z,5.00
2024-05-09T04:23:06.954Z,4.85
2024-05-09T04:25:34.220Z,4.97
2024-05-09T04:28:00.976Z,5.68
2024-05-09T04:30:36.414Z,4.57
2024-05-09T04:33:08.128Z,4.90
2024-05-09T04:35:36.814Z,5.78
2024-05-09T04:38:05.088Z,4.75
2024-05-09T04:40:35.223Z,5.13
2024-05-09T04:43:06.966Z,4.75
2024-05-09T04:45:34.219Z,5.15
2024-05-09T04:48:01.632Z,5.30
2024-05-09T04:50:36.471Z,5.18
2024-05-09T04:53:10.496Z,4.45
2024-05-09T04:55:38.488Z,5.20
2024-05-09T04:58:08.510Z,5.05
2024-05-09T05:00:37.480Z,5.07
2024-05-09T05:03:13.230Z,4.82
2024-05-09T05:05:42.188Z,4.65
2024-05-09T05:08:13.507Z,4.47
2024-05-09T05:10:41.206Z,4.72
2024-05-09T05:13:17.855Z,5.35
2024-05-09T05:15:49.181Z,4.82
2024-05-09T05:18:16.658Z,5.10
2024-05-09T05:20:43.665Z,4.43
2024-05-09T05:23:12.423Z,4.90
2024-05-09T05:25:39.917Z,4.93
2024-05-09T05:28:06.948Z,4.72
2024-05-09T05:30:35.266Z,4.40
2024-05-09T05:33:02.499Z,4.55
2024-05-09T05:35:29.419Z,4.38
2024-05-09T05:37:56.317Z,7.00
2024-05-09T05:40:32.121Z,8.80
2024-05-09T05:43:03.873Z,5.82
2024-05-09T05:45:30.666Z,5.50
2024-05-09T05:47:57.764Z,4.57
2024-05-09T05:50:32.408Z,4.65
2024-05-09T05:53:03.190Z,4.43
2024-05-09T05:55:29.997Z,4.53
2024-05-09T05:57:56.719Z,4.50
2024-05-09T06:00:29.928Z,4.35
2024-05-09T06:03:04.959Z,4.60
2024-05-09T06:05:32.152Z,4.75
2024-05-09T06:07:59.328Z,4.90
2024-05-09T06:10:30.591Z,4.35
2024-05-09T06:13:05.004Z,4.88
2024-05-09T06:15:31.718Z,4.72
2024-05-09T06:17:58.616Z,4.38
2024-05-09T06:20:34.619Z,4.85
2024-05-09T06:23:04.411Z,4.43
2024-05-09T06:25:31.406Z,4.32
2024-05-09T06:27:58.049Z,4.38
2024-05-09T06:30:34.446Z,4.45
2024-05-09T06:33:06.046Z,4.80
2024-05-09T06:35:33.926Z,3.90
2024-05-09T06:38:01.012Z,4.55
2024-05-09T06:40:36.309Z,4.25
2024-05-09T06:43:07.008Z,4.55
2024-05-09T06:45:33.728Z,4.47
2024-05-09T06:48:00.766Z,4.82
2024-05-09T06:50:35.447Z,4.95
2024-05-09T06:53:04.504Z,5.10
2024-05-09T06:55:31.226Z,4.30
2024-05-09T06:57:57.897Z,4.55
2024-05-09T07:00:30.901Z,3.90
2024-05-09T07:03:13.977Z,4.43
2024-05-09T07:05:43.368Z,4.38
2024-05-09T07:08:10.309Z,3.95
2024-05-09T07:10:37.455Z,3.97
2024-05-09T07:13:14.380Z,4.75
2024-05-09T07:15:41.775Z,4.68
2024-05-09T07:18:13.033Z,3.80
2024-05-09T07:20:40.401Z,4.35
2024-05-09T07:23:10.963Z,3.90
2024-05-09T07:25:38.216Z,4.00
2024-05-09T07:28:05.315Z,4.47
2024-05-09T07:30:34.423Z,4.32
2024-05-09T07:33:03.026Z,3.60
2024-05-09T07:35:30.822Z,4.15
2024-05-09T07:37:58.455Z,4.50
2024-05-09T07:40:32.976Z,3.83
2024-05-09T07:43:07.563Z,3.80
2024-05-09T07:52:23.982Z,4.22
2024-05-09T07:53:39.398Z,4.60
2024-05-09T07:56:09.878Z,4.28
2024-05-09T07:58:37.263Z,3.03
2024-05-09T08:01:04.401Z,3.72
2024-05-09T08:03:33.820Z,3.03
2024-05-09T08:06:00.772Z,3.15
2024-05-09T08:08:27.394Z,3.20
2024-05-09T08:10:54.194Z,3.17
2024-05-09T08:13:21.020Z,3.30
2024-05-09T08:15:48.748Z,3.42
2024-05-09T08:18:15.735Z,3.80
2024-05-09T08:20:42.771Z,3.45
2024-05-09T08:23:11.121Z,3.53
2024-05-09T08:25:38.760Z,3.70
2024-05-09T08:28:05.747Z,3.70
2024-05-09T08:30:36.631Z,4.07
2024-05-09T08:33:05.853Z,3.35
2024-05-09T08:35:33.273Z,4.38
2024-05-09T08:38:00.246Z,4.53
2024-05-09T08:40:34.185Z,4.10
2024-05-09T08:43:11.313Z,4.00
2024-05-09T08:45:43.762Z,4.13
2024-05-09T08:48:13.176Z,4.20
2024-05-09T08:50:41.038Z,3.67
2024-05-09T08:53:08.664Z,3.60
2024-05-09T08:55:40.180Z,3.92
2024-05-09T08:58:10.909Z,4.03
2024-05-09T09:00:38.956Z,3.50
2024-05-09T09:03:09.553Z,4.10
2024-05-09T09:05:38.899Z,3.45
2024-05-09T09:10:34.080Z,3.53
2024-05-09T09:13:05.260Z,3.50
2024-05-09T09:18:00.170Z,3.25
2024-05-09T09:20:34.218Z,3.10
2024-05-09T09:25:30.396Z,2.83
2024-05-09T09:27:58.304Z,3.20
2024-05-09T09:30:34.965Z,3.40
2024-05-09T09:33:05.615Z,2.80
2024-05-09T09:35:32.791Z,3.22
2024-05-09T09:38:02.407Z,2.90
2024-05-09T09:40:34.762Z,3.08
2024-05-09T09:43:07.211Z,3.10
2024-05-09T09:53:00.974Z,2.78
2024-05-09T09:55:28.410Z,2.90
2024-05-09T09:57:56.162Z,3.10
2024-05-09T10:00:30.466Z,3.08
2024-05-09T10:03:00.104Z,3.17
2024-05-09T10:05:27.380Z,3.17
2024-05-09T10:07:55.245Z,3.20
2024-05-09T10:10:30.046Z,3.35
2024-05-09T10:13:03.122Z,3.22
2024-05-09T10:15:30.724Z,3.00
2024-05-09T10:18:07.244Z,3.08
2024-05-09T10:20:44.182Z,3.40
2024-05-09T10:23:30.388Z,3.58
2024-05-09T10:26:03.021Z,3.15
2024-05-09T10:28:31.935Z,3.33
2024-05-09T10:31:08.516Z,3.50
2024-05-09T10:33:37.205Z,2.80
2024-05-09T10:36:09.011Z,3.53
2024-05-09T10:38:35.708Z,3.28
2024-05-09T10:41:02.642Z,3.10
2024-05-09T10:43:31.207Z,3.50
2024-05-09T10:45:57.945Z,3.10
2024-05-09T10:48:24.888Z,3.38
2024-05-09T10:50:51.722Z,3.30
2024-05-09T10:53:19.249Z,2.72
2024-05-09T11:08:22.767Z,2.65
2024-05-09T11:10:51.206Z,2.67
2024-05-09T11:13:33.795Z,3.13
2024-05-09T11:16:00.838Z,2.75
2024-05-09T11:18:32.166Z,2.92
2024-05-09T11:21:02.137Z,2.50
2024-05-09T11:23:31.945Z,3.17
2024-05-09T11:25:59.105Z,2.72
2024-05-09T11:28:27.196Z,2.60
2024-05-09T11:31:08.715Z,2.95
2024-05-09T11:33:41.184Z,2.78
2024-05-09T11:36:08.659Z,3.50
2024-05-09T11:38:35.511Z,2.90
2024-05-09T11:41:03.290Z,2.80
2024-05-09T11:43:30.035Z,2.75
2024-05-09T11:46:00.829Z,2.92
2024-05-09T11:48:27.942Z,2.70
2024-05-09T11:50:55.427Z,2.83
2024-05-09T11:58:18.059Z,2.78
2024-05-09T12:00:45.830Z,2.67
2024-05-09T12:03:13.025Z,2.50
2024-05-09T12:05:39.873Z,2.38
2024-05-09T12:08:07.124Z,2.40
2024-05-09T12:10:35.840Z,2.03
2024-05-09T12:13:05.236Z,2.20
2024-05-09T12:15:34.041Z,2.57
2024-05-09T13:07:41.454Z,1.52
2024-05-09T13:12:40.631Z,1.65
2024-05-09T13:51:48.595Z,1.85
2024-05-09T13:54:16.723Z,1.80
2024-05-09T13:56:44.610Z,1.92
2024-05-09T13:59:11.236Z,2.00
2024-05-09T14:01:38.040Z,1.70
2024-05-09T14:04:05.158Z,1.90
2024-05-09T14:06:32.042Z,1.60
2024-05-09T14:08:58.846Z,1.60
2024-05-09T14:11:25.679Z,1.85
2024-05-09T14:13:52.320Z,1.95
2024-05-09T14:16:19.062Z,1.55
2024-05-09T14:18:45.874Z,2.13
2024-05-09T14:21:12.594Z,1.80
2024-05-09T14:23:39.270Z,1.92
2024-05-09T14:26:06.009Z,1.90
2024-05-09T14:28:32.769Z,1.50
2024-05-09T14:31:01.371Z,1.52
2024-05-09T14:33:30.602Z,1.88
2024-05-09T14:35:57.575Z,1.83
2024-05-09T14:38:24.513Z,1.80
2024-05-09T14:40:51.405Z,1.70
2024-05-09T14:43:18.568Z,1.55
2024-05-09T14:45:45.782Z,1.70
2024-05-09T14:48:17.727Z,2.05
2024-05-09T14:50:44.530Z,1.70
2024-05-09T14:53:12.693Z,1.67
2024-05-09T14:55:41.569Z,2.17
2024-05-09T14:58:10.494Z,1.90
2024-05-09T15:00:41.725Z,1.50
2024-05-09T15:03:12.195Z,1.48
2024-05-09T15:05:39.316Z,1.85
2024-05-09T15:08:08.888Z,1.67
2024-05-09T15:10:37.333Z,1.80
2024-05-09T15:13:06.570Z,1.67
2024-05-09T15:15:35.034Z,1.65
2024-05-09T15:18:01.917Z,1.85
2024-05-09T15:20:34.609Z,1.85
2024-05-09T15:23:04.411Z,1.60
2024-05-09T15:25:31.193Z,2.15
2024-05-09T15:27:58.051Z,2.38
2024-05-09T15:32:54.752Z,1.80
2024-05-09T15:35:21.470Z,1.88
2024-05-09T15:37:48.500Z,1.60
2024-05-09T15:40:22.323Z,1.80
2024-05-09T15:42:57.949Z,1.80
2024-05-09T15:45:24.770Z,2.10
2024-05-09T15:47:51.592Z,2.15
2024-05-09T15:50:28.168Z,1.45
2024-05-09T15:55:33.643Z,1.75
2024-05-09T15:58:01.454Z,1.98
2024-05-09T16:00:36.210Z,1.70
2024-05-09T16:03:06.696Z,1.90
2024-05-09T16:05:33.614Z,1.98
2024-05-09T16:08:00.657Z,1.95
2024-05-09T16:10:32.540Z,1.80
2024-05-09T16:13:01.351Z,1.85
2024-05-09T16:15:28.236Z,2.50
2024-05-09T16:17:55.116Z,1.92
2024-05-09T16:20:33.695Z,2.10
2024-05-09T16:25:32.465Z,2.10
2024-05-09T16:27:59.291Z,1.70
2024-05-09T16:30:32.166Z,1.67
2024-05-09T16:33:02.923Z,1.67
2024-05-09T16:35:30.052Z,1.70
2024-05-09T16:37:57.146Z,1.75
2024-05-09T16:40:30.500Z,1.77
2024-05-09T16:43:04.705Z,1.73
2024-05-09T16:45:31.792Z,2.00
2024-05-09T16:47:59.763Z,1.77
2024-05-09T16:50:32.336Z,1.90
2024-05-09T16:53:01.934Z,1.90
2024-05-09T16:55:29.059Z,1.88
2024-05-09T16:57:56.948Z,2.05
2024-05-09T17:00:34.970Z,2.15
2024-05-09T17:03:08.596Z,1.90
2024-05-09T17:05:36.279Z,2.00
2024-05-09T17:08:03.638Z,1.85
2024-05-09T17:10:33.664Z,1.92
2024-05-09T17:13:06.886Z,2.15
2024-05-09T17:15:35.922Z,2.05
2024-05-09T17:18:04.041Z,1.95
2024-05-09T17:20:34.639Z,2.00
2024-05-09T17:23:05.145Z,2.72
2024-05-09T17:25:32.710Z,2.95
2024-05-09T17:28:06.079Z,2.60
2024-05-09T17:30:36.668Z,2.15
2024-05-09T17:33:06.226Z,2.03
2024-05-09T17:35:33.091Z,2.17
2024-05-09T17:38:01.625Z,2.10
2024-05-09T17:40:33.594Z,2.00
2024-05-09T17:43:04.151Z,2.30
2024-05-09T17:45:31.736Z,2.00
2024-05-09T17:47:59.072Z,2.83
2024-05-09T17:50:31.792Z,2.50
2024-05-09T17:53:02.905Z,2.70
2024-05-09T17:55:30.039Z,2.53
2024-05-09T17:57:57.171Z,2.90
2024-05-09T18:00:36.091Z,2.88
2024-05-09T18:03:06.750Z,3.00
2024-05-09T18:05:35.921Z,3.10
2024-05-09T18:08:03.610Z,3.45
2024-05-09T18:10:36.145Z,2.28
2024-05-09T18:13:06.432Z,3.50
2024-05-09T18:15:33.781Z,4.13
2024-05-09T18:18:01.597Z,2.75
2024-05-09T18:20:37.730Z,2.67
2024-05-09T18:23:10.572Z,3.20
2024-05-09T18:25:37.404Z,3.20
2024-05-09T18:28:04.578Z,2.97
2024-05-09T18:30:34.649Z,2.40
2024-05-09T18:33:04.957Z,2.00
2024-05-09T18:35:33.112Z,2.33
2024-05-09T18:37:59.952Z,2.60
2024-05-09T18:40:33.682Z,2.58
2024-05-09T18:43:04.658Z,2.60
2024-05-09T18:45:32.621Z,2.70
2024-05-09T18:47:59.713Z,3.42
2024-05-09T18:50:34.853Z,3.22
2024-05-09T18:53:12.794Z,3.25
2024-05-09T18:55:41.324Z,3.85
2024-05-09T18:58:08.051Z,3.47
2024-05-09T19:00:38.461Z,3.60
2024-05-09T19:03:09.993Z,3.30
2024-05-09T19:05:39.314Z,3.33
2024-05-09T19:08:07.660Z,3.33
2024-05-09T19:10:35.868Z,3.15
2024-05-09T19:13:08.017Z,3.22
2024-05-09T19:15:38.484Z,2.97
2024-05-09T19:18:05.874Z,3.25
2024-05-09T19:20:35.212Z,3.80
2024-05-09T19:23:03.480Z,2.90
2024-05-09T19:25:30.490Z,3.60
2024-05-09T19:27:57.341Z,2.97
2024-05-09T19:30:32.919Z,2.95
2024-05-09T19:33:06.034Z,3.05
2024-05-09T19:35:32.934Z,3.05
2024-05-09T19:37:59.963Z,2.85
2024-05-09T19:40:31.562Z,2.60
2024-05-09T19:43:01.728Z,2.80
2024-05-09T19:45:29.215Z,2.90
2024-05-09T19:47:56.364Z,3.08
2024-05-09T19:50:31.805Z,2.75
2024-05-09T19:53:06.439Z,3.00
2024-05-09T19:55:33.459Z,2.72
2024-05-09T19:58:04.739Z,2.58
2024-05-09T20:00:39.301Z,2.67
2024-05-09T20:03:08.733Z,2.88
2024-05-09T20:05:36.263Z,2.75
2024-05-09T20:08:03.484Z,2.85
2024-05-09T20:10:33.055Z,3.15
2024-05-09T20:13:02.444Z,3.35
2024-05-09T20:15:29.368Z,3.70
2024-05-09T20:17:56.566Z,4.47
2024-05-09T20:20:32.515Z,4.53
2024-05-09T20:23:04.587Z,3.92
2024-05-09T20:25:31.238Z,3.70
2024-05-09T20:27:57.948Z,3.47
2024-05-09T20:30:31.370Z,3.47
2024-05-09T20:33:01.534Z,3.40
2024-05-09T20:35:31.822Z,3.25
2024-05-09T20:37:59.158Z,3.22
2024-05-09T20:40:31.808Z,3.83
2024-05-09T20:43:02.327Z,4.63
2024-05-09T20:45:29.026Z,5.50
2024-05-09T20:47:55.914Z,7.63
2024-05-09T20:50:29.315Z,9.05
2024-05-09T20:53:05.062Z,10.57
2024-05-09T20:55:31.807Z,7.22
2024-05-09T20:57:58.698Z,3.78
2024-05-09T21:00:33.878Z,3.25
2024-05-09T21:03:06.506Z,2.67
2024-05-09T21:05:34.133Z,2.80
2024-05-09T21:08:04.251Z,2.80
2024-05-09T21:10:33.320Z,2.88
2024-05-09T21:13:02.694Z,2.70
2024-05-09T21:15:30.116Z,3.00
2024-05-09T21:17:56.857Z,2.80
2024-05-09T21:20:30.492Z,2.80
2024-05-09T21:22:58.967Z,2.80
2024-05-09T21:25:25.918Z,2.83
2024-05-09T21:27:52.847Z,2.67
2024-05-09T21:30:31.376Z,2.80
2024-05-09T21:33:06.135Z,2.70
2024-05-09T21:35:33.053Z,2.20
2024-05-09T21:37:59.822Z,3.00
2024-05-09T21:40:33.486Z,2.80
2024-05-09T21:43:02.542Z,3.13
2024-05-09T21:45:29.442Z,2.80
2024-05-09T21:47:56.254Z,2.90
2024-05-09T21:50:28.706Z,2.80
2024-05-09T21:53:03.386Z,2.83
2024-05-09T21:55:30.257Z,2.90
2024-05-09T21:57:57.083Z,2.42
2024-05-09T22:00:32.045Z,2.72
2024-05-09T22:03:03.654Z,2.70
2024-05-09T22:05:30.868Z,2.35
2024-05-09T22:07:57.670Z,2.80
2024-05-09T22:10:30.673Z,2.33
2024-05-09T22:13:01.586Z,2.97
2024-05-09T22:15:28.546Z,2.72
2024-05-09T22:17:57.118Z,3.03
2024-05-09T22:20:33.080Z,2.80
2024-05-09T22:23:04.294Z,2.70
2024-05-09T22:25:32.048Z,2.42
2024-05-09T22:27:59.472Z,2.17
2024-05-09T22:30:33.733Z,2.40
2024-05-09T22:33:05.254Z,2.30
2024-05-09T22:35:32.253Z,2.35
2024-05-09T22:37:58.947Z,2.50
2024-05-09T22:40:37.890Z,2.50
2024-05-09T22:43:12.654Z,2.42
2024-05-09T22:45:39.577Z,2.70
2024-05-09T22:48:07.977Z,2.63
2024-05-09T22:50:34.881Z,2.60
2024-05-09T22:53:01.653Z,2.60
2024-05-09T22:55:28.492Z,2.30
2024-05-09T22:57:55.644Z,2.50
2024-05-09T23:00:30.841Z,2.75
2024-05-09T23:03:00.334Z,2.60
2024-05-09T23:05:28.039Z,2.22
2024-05-09T23:07:54.868Z,2.65
2024-05-09T23:10:28.324Z,2.03
2024-05-09T23:13:01.734Z,2.22
2024-05-09T23:15:28.941Z,2.65
2024-05-09T23:17:55.877Z,2.78
2024-05-09T23:20:33.225Z,2.70
2024-05-09T23:23:05.439Z,2.53
2024-05-09T23:25:32.081Z,2.65
2024-05-09T23:27:58.914Z,2.65
2024-05-09T23:30:34.038Z,2.20
2024-05-09T23:33:05.585Z,2.35
2024-05-09T23:35:32.481Z,2.70
2024-05-09T23:37:59.450Z,2.60
2024-05-09T23:40:36.952Z,2.15
2024-05-09T23:43:07.673Z,2.65
2024-05-09T23:45:35.004Z,3.00
2024-05-09T23:48:01.978Z,2.50
2024-05-09T23:52:58.410Z,3.20
2024-05-09T23:55:25.075Z,2.45
2024-05-09T23:57:51.890Z,2.22
